createdAt,value
2019-01-06T00:00:29.744Z,31.57
2019-01-06T00:03:37.912Z,29.40
2019-01-06T00:06:38.663Z,28.33
2019-01-06T00:09:46.793Z,29.67
2019-01-06T00:15:54.216Z,33.40
2019-01-06T00:18:37.967Z,28.27
2019-01-06T00:21:46.151Z,27.73
2019-01-06T00:24:47.626Z,28.33
2019-01-06T00:27:48.447Z,29.30
2019-01-06T00:30:31.912Z,28.10
2019-01-06T00:36:28.919Z,27.73
2019-01-06T00:39:37.108Z,28.53
2019-01-06T00:42:23.806Z,28.83
2019-01-06T00:45:31.958Z,28.33
2019-01-06T00:48:32.506Z,27.40
2019-01-06T00:51:40.596Z,27.37
2019-01-06T00:54:23.875Z,27.03
2019-01-06T00:57:24.956Z,28.10
2019-01-06T01:03:33.129Z,27.17
2019-01-06T01:06:41.316Z,27.53
2019-01-06T01:09:49.327Z,27.10
2019-01-06T01:12:57.587Z,27.33
2019-01-06T01:16:05.835Z,26.73
2019-01-06T01:25:06.850Z,28.07
2019-01-06T01:31:17.805Z,27.23
2019-01-06T01:34:26.016Z,27.33
2019-01-06T01:37:27.111Z,27.70
2019-01-06T01:43:23.129Z,27.83
2019-01-06T01:46:31.257Z,27.87
2019-01-06T01:49:14.799Z,27.00
2019-01-06T01:52:01.311Z,27.37
2019-01-06T01:55:09.533Z,27.50
2019-01-06T01:58:17.656Z,27.47
2019-01-06T02:00:59.431Z,28.07
2019-01-06T02:03:45.721Z,27.53
2019-01-06T02:18:43.910Z,27.70
2019-01-06T02:21:52.162Z,29.00
2019-01-06T02:30:57.067Z,29.50
2019-01-06T02:33:58.114Z,29.67
2019-01-06T02:37:06.351Z,32.30
2019-01-06T02:40:14.438Z,34.67
2019-01-06T02:43:22.633Z,34.47
2019-01-06T02:49:32.958Z,35.70
2019-01-06T02:55:35.162Z,34.67
2019-01-06T02:58:36.132Z,34.57
2019-01-06T03:01:36.857Z,34.83
2019-01-06T03:04:44.958Z,35.70
2019-01-06T03:07:53.180Z,35.10
2019-01-06T03:14:01.541Z,35.67
2019-01-06T03:17:09.629Z,36.17
2019-01-06T03:20:17.785Z,37.10
2019-01-06T03:26:33.299Z,36.17
2019-01-06T03:29:34.051Z,36.43
2019-01-06T03:32:17.561Z,37.93
2019-01-06T03:41:00.545Z,42.47
2019-01-06T03:47:10.959Z,41.30
2019-01-06T03:50:19.147Z,39.63
2019-01-06T03:53:00.779Z,40.00
2019-01-06T03:55:47.328Z,39.20
2019-01-06T03:58:55.444Z,39.20
2019-01-06T04:02:03.545Z,39.53
2019-01-06T04:05:11.607Z,36.77
2019-01-06T04:08:19.717Z,35.13
2019-01-06T04:11:27.785Z,33.67
2019-01-06T04:14:35.944Z,33.30
2019-01-06T04:17:19.281Z,32.53
2019-01-06T04:20:27.594Z,28.83
2019-01-06T04:26:32.212Z,25.57
2019-01-06T04:29:15.784Z,27.13
2019-01-06T04:32:23.862Z,26.33
2019-01-06T04:35:24.983Z,26.60
2019-01-06T04:38:26.084Z,25.50
2019-01-06T04:41:09.459Z,25.37
2019-01-06T04:44:17.687Z,25.13
2019-01-06T04:47:19.251Z,25.50
2019-01-06T04:50:27.452Z,25.37
2019-01-06T04:53:28.043Z,25.30
2019-01-06T04:56:36.137Z,26.10
2019-01-06T04:59:19.585Z,25.10
2019-01-06T05:02:27.691Z,25.63
2019-01-06T05:05:28.663Z,26.00
2019-01-06T05:08:12.297Z,25.37
2019-01-06T05:11:20.369Z,24.67
2019-01-06T05:14:04.756Z,25.63
2019-01-06T05:23:03.217Z,25.57
2019-01-06T05:29:07.101Z,25.23
2019-01-06T05:31:53.575Z,25.23
2019-01-06T05:35:01.661Z,27.40
2019-01-06T05:37:47.836Z,27.10
2019-01-06T05:40:56.022Z,27.87
2019-01-06T05:44:04.105Z,27.17
2019-01-06T05:47:32.925Z,27.40
2019-01-06T05:50:41.014Z,27.90
2019-01-06T05:56:20.247Z,29.17
2019-01-06T05:59:28.328Z,28.53
2019-01-06T06:02:14.738Z,28.30
2019-01-06T06:05:22.812Z,27.50
2019-01-06T06:08:08.974Z,26.50
2019-01-06T06:11:17.162Z,26.80
2019-01-06T06:14:18.316Z,26.93
2019-01-06T06:17:26.406Z,27.80
2019-01-06T06:26:25.397Z,26.33
2019-01-06T06:29:11.027Z,25.33
2019-01-06T06:32:19.115Z,25.37
2019-01-06T06:35:02.513Z,24.50
2019-01-06T06:37:48.674Z,26.10
2019-01-06T06:40:56.752Z,27.17
2019-01-06T06:43:57.314Z,28.37
2019-01-06T06:47:05.394Z,28.90
2019-01-06T06:49:52.143Z,30.43
2019-01-06T06:53:00.225Z,31.07
2019-01-06T06:55:46.264Z,31.27
2019-01-06T06:58:47.249Z,31.93
2019-01-06T07:02:16.058Z,31.30
2019-01-06T07:04:57.757Z,30.87
2019-01-06T07:10:58.004Z,31.93
2019-01-06T07:14:06.085Z,32.43
2019-01-06T07:17:11.385Z,31.67
2019-01-06T07:20:19.460Z,31.57
2019-01-06T07:23:20.383Z,31.70
2019-01-06T07:26:28.469Z,33.33
2019-01-06T07:29:29.304Z,33.17
2019-01-06T07:35:20.509Z,33.43
2019-01-06T07:38:28.601Z,33.30
2019-01-06T07:41:29.586Z,34.30
2019-01-06T07:44:37.669Z,34.77
2019-01-06T07:47:38.602Z,33.97
2019-01-06T07:50:46.728Z,32.53
2019-01-06T07:56:49.343Z,34.33
2019-01-06T07:59:50.602Z,32.53
2019-01-06T08:02:34.316Z,32.60
2019-01-06T08:05:42.476Z,31.67
2019-01-06T08:11:50.051Z,42.63
2019-01-06T08:14:51.127Z,44.53
2019-01-06T08:17:51.924Z,40.00
2019-01-06T08:26:56.493Z,33.73
2019-01-06T08:30:04.639Z,32.37
2019-01-06T08:32:48.014Z,31.80
2019-01-06T08:35:56.164Z,31.80
2019-01-06T08:39:04.294Z,32.37
2019-01-06T08:42:12.409Z,32.43
2019-01-06T08:45:20.561Z,31.30
2019-01-06T08:48:20.350Z,32.40
2019-01-06T08:51:28.546Z,32.90
2019-01-06T08:57:34.667Z,32.83
2019-01-06T09:00:35.943Z,32.73
2019-01-06T09:03:44.144Z,31.90
2019-01-06T09:06:52.285Z,33.60
2019-01-06T09:09:35.555Z,34.60
2019-01-06T09:12:45.326Z,36.93
2019-01-06T09:15:28.958Z,31.57
2019-01-06T09:24:46.383Z,30.53
2019-01-06T09:27:54.578Z,27.93
2019-01-06T09:31:02.809Z,28.50
2019-01-06T09:34:10.886Z,28.37
2019-01-06T09:37:19.111Z,26.73
2019-01-06T09:43:42.207Z,30.40
2019-01-06T09:46:28.565Z,30.07
2019-01-06T09:49:27.587Z,28.03
2019-01-06T09:52:28.630Z,26.30
2019-01-06T09:55:36.858Z,27.07
2019-01-06T09:58:44.977Z,27.60
2019-01-06T10:01:53.044Z,26.77
2019-01-06T10:04:36.608Z,26.73
2019-01-06T10:07:44.706Z,27.67
2019-01-06T10:10:52.782Z,28.20
2019-01-06T10:13:38.725Z,27.97
2019-01-06T10:16:46.800Z,24.77
2019-01-06T10:19:33.053Z,26.07
2019-01-06T10:22:41.166Z,25.10
2019-01-06T10:25:27.316Z,27.57
2019-01-06T10:28:35.473Z,25.73
2019-01-06T10:31:21.521Z,25.77
2019-01-06T10:34:29.613Z,25.53
2019-01-06T10:40:32.007Z,25.70
2019-01-06T10:43:40.064Z,23.03
2019-01-06T10:46:48.154Z,23.77
2019-01-06T10:49:56.270Z,23.10
2019-01-06T10:52:56.635Z,23.60
2019-01-06T10:56:04.722Z,22.90
2019-01-06T10:58:46.351Z,21.10
2019-01-06T11:04:40.207Z,24.23
2019-01-06T11:07:48.384Z,23.57
2019-01-06T11:13:51.430Z,23.50
2019-01-06T11:16:59.532Z,22.63
2019-01-06T11:19:42.832Z,23.97
2019-01-06T11:22:50.923Z,24.33
2019-01-06T11:25:52.135Z,24.30
2019-01-06T11:32:02.404Z,26.90
2019-01-06T11:35:03.296Z,25.50
2019-01-06T11:38:11.351Z,24.57
2019-01-06T11:41:19.484Z,24.20
2019-01-06T11:46:59.270Z,23.93
2019-01-06T11:50:07.375Z,25.40
2019-01-06T11:53:08.354Z,24.90
2019-01-06T11:59:01.528Z,21.77
2019-01-06T12:02:09.707Z,21.97
2019-01-06T12:05:10.524Z,21.97
2019-01-06T12:08:18.626Z,22.60
2019-01-06T12:11:05.318Z,23.33
2019-01-06T12:17:13.900Z,22.43
2019-01-06T12:20:21.996Z,22.27
2019-01-06T12:23:22.783Z,22.00
2019-01-06T12:26:31.002Z,22.93
2019-01-06T12:29:32.044Z,22.83
2019-01-06T12:38:55.624Z,21.07
2019-01-06T12:41:38.709Z,21.20
2019-01-06T12:44:46.805Z,20.07
2019-01-06T12:47:31.521Z,20.67
2019-01-06T12:50:39.601Z,20.97
2019-01-06T12:53:47.841Z,20.87
2019-01-06T12:56:55.936Z,20.20
2019-01-06T13:03:03.483Z,18.13
2019-01-06T13:06:04.343Z,17.47
2019-01-06T13:09:05.074Z,17.27
2019-01-06T13:12:05.978Z,16.97
2019-01-06T13:21:03.975Z,19.30
2019-01-06T13:24:12.132Z,18.97
2019-01-06T13:26:55.394Z,18.63
2019-01-06T13:32:59.707Z,17.90
2019-01-06T13:35:43.526Z,18.03
2019-01-06T13:38:51.606Z,17.93
2019-01-06T13:41:35.366Z,17.10
2019-01-06T13:44:43.535Z,18.40
2019-01-06T13:47:27.009Z,17.90
2019-01-06T13:53:09.898Z,18.20
2019-01-06T13:56:17.991Z,16.93
2019-01-06T13:59:01.600Z,18.80
2019-01-06T14:02:09.690Z,18.37
2019-01-06T14:05:11.037Z,19.20
2019-01-06T14:08:19.159Z,18.77
2019-01-06T14:11:20.557Z,19.17
2019-01-06T14:14:21.700Z,18.90
2019-01-06T14:17:29.899Z,19.47
2019-01-06T14:20:22.874Z,19.07
2019-01-06T14:23:30.992Z,19.67
2019-01-06T14:26:39.036Z,20.30
2019-01-06T14:29:41.235Z,18.83
2019-01-06T14:32:42.079Z,18.67
2019-01-06T14:35:42.928Z,18.63
2019-01-06T14:38:43.741Z,19.00
2019-01-06T14:41:29.933Z,18.00
2019-01-06T14:44:38.202Z,19.47
2019-01-06T14:47:46.292Z,19.57
2019-01-06T14:50:46.421Z,19.77
2019-01-06T14:57:08.062Z,19.57
2019-01-06T15:00:12.879Z,19.57
2019-01-06T15:03:21.118Z,21.07
2019-01-06T15:06:21.932Z,19.40
2019-01-06T15:09:30.023Z,20.03
2019-01-06T15:12:13.761Z,20.40
2019-01-06T15:18:29.848Z,20.77
2019-01-06T15:31:04.678Z,22.83
2019-01-06T15:34:12.758Z,21.90
2019-01-06T15:40:16.663Z,22.90
2019-01-06T15:42:59.981Z,23.63
2019-01-06T15:46:08.061Z,23.27
2019-01-06T15:49:09.288Z,26.43
2019-01-06T15:52:17.369Z,28.20
2019-01-06T15:55:03.860Z,31.83
2019-01-06T15:58:11.946Z,31.67
2019-01-06T16:01:13.023Z,28.20
2019-01-06T16:04:21.103Z,29.20
2019-01-06T16:07:04.433Z,35.77
2019-01-06T16:10:12.521Z,35.07
2019-01-06T16:12:58.585Z,26.93
2019-01-06T16:16:06.790Z,36.10
2019-01-06T16:19:15.044Z,34.77
2019-01-06T16:22:23.127Z,33.40
2019-01-06T16:25:31.206Z,40.77
2019-01-06T16:28:39.305Z,43.80
2019-01-06T16:31:47.511Z,47.03
2019-01-06T16:34:55.599Z,49.17
2019-01-06T16:38:03.674Z,45.17
2019-01-06T16:41:11.754Z,41.40
2019-01-06T16:44:19.836Z,41.37
2019-01-06T16:53:41.040Z,36.63
2019-01-06T16:56:49.118Z,34.80
2019-01-06T16:59:57.267Z,32.93
2019-01-06T17:06:00.924Z,35.20
2019-01-06T17:08:47.044Z,36.17
2019-01-06T17:11:55.125Z,39.17
2019-01-06T17:14:56.190Z,39.23
2019-01-06T17:17:56.566Z,33.40
2019-01-06T17:24:12.950Z,29.47
2019-01-06T17:27:14.336Z,26.87
2019-01-06T17:33:30.667Z,21.43
2019-01-06T17:39:33.752Z,22.63
2019-01-06T17:45:49.893Z,20.13
2019-01-06T17:48:33.927Z,16.47
2019-01-06T17:51:42.190Z,16.50
2019-01-06T17:54:42.863Z,18.20
2019-01-06T17:57:43.855Z,15.20
2019-01-06T18:04:00.076Z,18.37
2019-01-06T18:07:00.950Z,18.53
2019-01-06T18:09:44.525Z,15.67
2019-01-06T18:15:45.797Z,15.60
2019-01-06T18:18:53.929Z,16.60
2019-01-06T18:22:02.089Z,16.37
2019-01-06T18:25:10.268Z,17.20
2019-01-06T18:40:07.114Z,13.87
2019-01-06T18:43:08.360Z,13.03
2019-01-06T18:46:09.110Z,15.37
2019-01-06T18:49:10.197Z,13.43
2019-01-06T18:51:56.800Z,12.57
2019-01-06T18:55:04.970Z,12.77
2019-01-06T18:57:48.119Z,14.77
2019-01-06T19:00:56.189Z,14.50
2019-01-06T19:03:37.799Z,15.43
2019-01-06T19:06:23.407Z,16.13
2019-01-06T19:09:31.507Z,16.03
2019-01-06T19:12:39.738Z,15.80
2019-01-06T19:15:47.842Z,13.73
2019-01-06T19:18:33.998Z,14.27
2019-01-06T19:21:42.169Z,16.10
2019-01-06T19:24:43.069Z,14.53
2019-01-06T19:27:44.004Z,15.07
2019-01-06T19:30:27.998Z,12.90
2019-01-06T19:33:36.226Z,13.67
2019-01-06T19:36:37.377Z,14.43
2019-01-06T19:39:38.415Z,16.60
2019-01-06T19:42:24.499Z,15.67
2019-01-06T19:45:32.602Z,14.83
2019-01-06T19:48:15.926Z,14.03
2019-01-06T19:51:43.296Z,14.60
2019-01-06T19:54:26.945Z,14.53
2019-01-06T19:57:35.207Z,14.97
2019-01-06T20:00:36.592Z,16.40
2019-01-06T20:03:22.487Z,16.00
2019-01-06T20:06:30.671Z,18.43
2019-01-06T20:12:31.521Z,17.53
2019-01-06T20:15:16.683Z,17.33
2019-01-06T20:18:15.886Z,17.23
2019-01-06T20:21:02.154Z,17.57
2019-01-06T20:27:18.461Z,17.37
2019-01-06T20:30:19.786Z,19.83
2019-01-06T20:33:28.013Z,18.00
2019-01-06T20:36:11.371Z,18.83
2019-01-06T20:39:19.481Z,18.67
2019-01-06T20:42:06.107Z,18.50
2019-01-06T20:48:05.470Z,19.13
2019-01-06T20:51:13.938Z,18.40
2019-01-06T20:54:14.628Z,19.67
2019-01-06T21:00:37.702Z,18.47
2019-01-06T21:03:21.502Z,18.57
2019-01-06T21:06:21.506Z,20.00
2019-01-06T21:09:29.641Z,20.83
2019-01-06T21:12:30.567Z,19.37
2019-01-06T21:18:45.393Z,18.90
2019-01-06T21:21:53.502Z,19.30
2019-01-06T21:25:01.789Z,20.93
2019-01-06T21:28:09.962Z,20.67
2019-01-06T21:31:18.067Z,20.17
2019-01-06T21:37:33.960Z,21.20
2019-01-06T21:40:35.026Z,21.70
2019-01-06T21:43:35.924Z,20.03
2019-01-06T21:46:36.713Z,21.33
2019-01-06T21:49:23.219Z,21.37
2019-01-06T21:52:31.399Z,20.87
2019-01-06T21:55:32.099Z,20.03
2019-01-06T21:58:16.876Z,20.77
2019-01-06T22:01:25.452Z,22.47
2019-01-06T22:04:11.783Z,20.17
2019-01-06T22:07:19.904Z,21.57
2019-01-06T22:10:28.101Z,20.50
2019-01-06T22:13:14.558Z,22.47
2019-01-06T22:16:22.726Z,20.40
2019-01-06T22:19:23.837Z,20.63
2019-01-06T22:22:07.193Z,21.20
2019-01-06T22:25:15.321Z,21.07
2019-01-06T22:28:23.460Z,20.27
2019-01-06T22:34:27.107Z,20.40
2019-01-06T22:37:10.333Z,20.77
2019-01-06T22:43:17.852Z,20.00
2019-01-06T22:46:01.454Z,20.87
2019-01-06T22:49:09.593Z,20.27
2019-01-06T22:55:25.855Z,20.73
2019-01-06T22:58:26.667Z,20.50
2019-01-06T23:01:27.540Z,20.30
2019-01-06T23:04:13.934Z,20.43
2019-01-06T23:10:12.529Z,20.27
2019-01-06T23:16:05.774Z,19.70
2019-01-06T23:19:13.913Z,19.23
2019-01-06T23:25:16.611Z,19.07
2019-01-06T23:28:24.797Z,18.93
2019-01-06T23:31:32.974Z,18.60
2019-01-06T23:37:37.063Z,19.50
2019-01-06T23:40:37.432Z,19.63
2019-01-06T23:46:38.151Z,18.53
2019-01-06T23:49:46.420Z,19.10
2019-01-06T23:52:32.787Z,19.03
2019-01-06T23:58:31.747Z,19.43
